TRPG

John A. Osborne

Gerald's Park, Montserrat
TAF TRPG 182300Z 1900/1924 09010KT 9999 SCT018
Issued Valid From Valid To
Jan-18 @ 23:00 UTC
(3 hours ago)
Jan-19 @ 00:00 UTC
(2 hours ago)
Jan-20 @ 00:00 UTC
(in 22 hours)
Jan-19 @ 00:00 to Jan-20 @ 00:00
TAF TRPG 182300Z 1900/1924 09010KT 9999 SCT018
Wind Visibility Clouds
90° at 10 knots 10,000+ meters
  • Scattered at 1,800' AGL
TAF TRPG 182300Z 1900/1924 09010KT 9999 SCT018
Issued Jan-18 @ 23:00 UTC
(3 hours ago)
Valid From Jan-19 @ 00:00 UTC
(2 hours ago)
Valid To Jan-20 @ 00:00 UTC
(in 22 hours)
Jan-19 @ 00:00 - Jan-20 @ 00:00
Wind Visibility
90° at 10 knots 10,000+ meters
Clouds
  • Scattered at 1,800' AGL